createdAt,value
2019-04-26T00:00:48.082Z,3.57
2019-04-26T00:03:18.543Z,3.40
2019-04-26T00:05:47.483Z,3.17
2019-04-26T00:08:15.804Z,3.60
2019-04-26T00:18:20.971Z,3.53
2019-04-26T00:20:50.990Z,3.17
2019-04-26T00:23:22.629Z,3.63
2019-04-26T00:25:51.779Z,2.93
2019-04-26T00:28:21.190Z,3.13
2019-04-26T00:30:48.338Z,2.80
2019-04-26T00:33:15.853Z,3.43
2019-04-26T00:35:47.780Z,4.13
2019-04-26T00:38:11.615Z,3.50
2019-04-26T00:40:43.341Z,3.13
2019-04-26T00:43:12.868Z,4.00
2019-04-26T00:45:43.110Z,3.00
2019-04-26T00:48:14.002Z,3.45
2019-04-26T00:50:43.633Z,2.93
2019-04-26T00:53:13.311Z,3.00
2019-04-26T00:55:44.898Z,2.90
2019-04-26T00:58:14.923Z,3.10
2019-04-26T01:00:44.543Z,2.80
2019-04-26T01:03:16.628Z,3.22
2019-04-26T01:05:59.539Z,3.45
2019-04-26T01:08:19.247Z,3.33
2019-04-26T01:10:49.652Z,3.27
2019-04-26T01:13:17.849Z,3.12
2019-04-26T01:15:48.821Z,3.23
2019-04-26T01:18:16.862Z,2.90
2019-04-26T01:20:47.039Z,3.53
2019-04-26T01:23:14.428Z,3.12
2019-04-26T01:25:42.841Z,3.37
2019-04-26T01:28:15.222Z,3.55
2019-04-26T01:30:48.289Z,3.47
2019-04-26T01:33:18.729Z,3.37
2019-04-26T01:35:57.650Z,3.80
2019-04-26T01:41:12.102Z,3.90
2019-04-26T01:43:41.605Z,3.73
2019-04-26T01:46:09.508Z,3.60
2019-04-26T01:48:36.108Z,3.43
2019-04-26T01:51:05.612Z,3.40
2019-04-26T01:53:34.347Z,4.10
2019-04-26T01:56:04.622Z,3.97
2019-04-26T01:58:31.470Z,3.87
2019-04-26T02:01:01.186Z,3.73
2019-04-26T02:03:29.802Z,4.33
2019-04-26T02:05:59.405Z,3.87
2019-04-26T02:08:26.305Z,3.03
2019-04-26T02:10:53.127Z,3.20
2019-04-26T02:13:25.062Z,4.10
2019-04-26T02:15:52.803Z,3.27
2019-04-26T02:18:23.964Z,3.57
2019-04-26T02:20:53.692Z,3.23
2019-04-26T02:23:20.624Z,4.30
2019-04-26T02:25:48.016Z,4.00
2019-04-26T02:31:11.163Z,3.17
2019-04-26T02:33:40.182Z,3.47
2019-04-26T02:36:10.939Z,3.30
2019-04-26T02:38:39.844Z,3.67
2019-04-26T02:41:09.686Z,4.00
2019-04-26T02:43:37.325Z,3.63
2019-04-26T02:46:07.085Z,3.22
2019-04-26T02:48:37.959Z,3.53
2019-04-26T02:51:06.731Z,4.75
2019-04-26T02:53:38.669Z,4.10
2019-04-26T02:56:05.136Z,3.58
2019-04-26T02:58:35.948Z,3.73
2019-04-26T03:01:05.591Z,4.20
2019-04-26T03:03:37.645Z,4.33
2019-04-26T03:06:03.856Z,4.70
2019-04-26T03:08:31.877Z,3.90
2019-04-26T03:11:03.713Z,3.93
2019-04-26T03:13:32.184Z,3.77
2019-04-26T03:16:00.214Z,4.10
2019-04-26T03:18:26.940Z,4.87
2019-04-26T03:20:55.823Z,4.30
2019-04-26T03:23:23.489Z,3.77
2019-04-26T03:25:52.439Z,4.07
2019-04-26T03:28:21.829Z,4.60
2019-04-26T03:30:52.353Z,4.67
2019-04-26T03:33:19.179Z,4.25
2019-04-26T03:35:56.499Z,3.93
2019-04-26T03:38:14.436Z,3.95
2019-04-26T03:40:44.587Z,3.87
2019-04-26T03:43:14.212Z,4.30
2019-04-26T03:45:43.122Z,3.90
2019-04-26T03:48:09.680Z,4.55
2019-04-26T03:50:37.881Z,4.30
2019-04-26T03:53:04.957Z,4.20
2019-04-26T03:55:35.946Z,4.67
2019-04-26T03:58:04.896Z,4.37
2019-04-26T04:00:32.752Z,5.57
2019-04-26T04:02:59.849Z,5.47
2019-04-26T04:05:27.023Z,5.00
2019-04-26T04:07:59.108Z,5.70
2019-04-26T04:13:09.812Z,5.00
2019-04-26T04:15:41.902Z,5.10
2019-04-26T04:18:07.592Z,5.30
2019-04-26T04:20:34.173Z,4.80
2019-04-26T04:23:01.138Z,4.57
2019-04-26T04:25:28.776Z,4.13
2019-04-26T04:30:40.659Z,5.20
2019-04-26T04:33:12.217Z,5.03
2019-04-26T04:38:25.393Z,4.53
2019-04-26T04:40:53.421Z,5.00
2019-04-26T04:43:20.227Z,5.47
2019-04-26T04:45:49.655Z,5.17
2019-04-26T04:48:16.522Z,4.43
2019-04-26T04:50:44.931Z,4.87
2019-04-26T04:53:12.910Z,5.00
2019-04-26T04:55:39.733Z,5.13
2019-04-26T04:58:07.392Z,5.00
2019-04-26T05:00:35.028Z,5.63
2019-04-26T05:03:01.651Z,5.53
2019-04-26T05:05:28.722Z,5.60
2019-04-26T05:08:06.491Z,5.40
2019-04-26T05:10:28.521Z,5.25
2019-04-26T05:12:55.189Z,5.47
2019-04-26T05:15:21.831Z,5.03
2019-04-26T05:17:49.489Z,5.77
2019-04-26T05:20:16.634Z,5.60
2019-04-26T05:22:43.264Z,5.80
2019-04-26T05:25:09.853Z,5.43
2019-04-26T05:27:36.554Z,6.40
2019-04-26T05:30:03.531Z,5.47
2019-04-26T05:35:15.232Z,5.93
2019-04-26T05:37:41.818Z,6.30
2019-04-26T05:40:08.430Z,5.40
2019-04-26T05:42:35.385Z,6.35
2019-04-26T05:45:01.989Z,5.77
2019-04-26T05:50:13.487Z,6.43
2019-04-26T05:52:40.415Z,6.12
2019-04-26T05:55:07.018Z,6.30
2019-04-26T05:57:33.645Z,6.90
2019-04-26T06:00:01.099Z,5.90
2019-04-26T06:02:28.107Z,6.03
2019-04-26T06:04:55.474Z,5.53
2019-04-26T06:07:22.058Z,6.33
2019-04-26T06:09:50.325Z,7.00
2019-04-26T06:12:17.494Z,6.13
2019-04-26T06:14:44.694Z,7.53
2019-04-26T06:17:11.515Z,6.73
2019-04-26T06:19:38.318Z,5.70
2019-04-26T06:22:05.185Z,6.37
2019-04-26T06:24:32.157Z,5.30
2019-04-26T06:27:11.012Z,6.78
2019-04-26T06:29:27.350Z,5.83
2019-04-26T06:31:55.017Z,5.50
2019-04-26T06:34:22.988Z,6.47
2019-04-26T06:36:49.937Z,5.90
2019-04-26T06:39:20.470Z,6.87
2019-04-26T06:41:49.018Z,7.47
2019-04-26T06:44:22.143Z,7.10
2019-04-26T06:46:49.968Z,6.70
2019-04-26T06:49:24.014Z,6.30
2019-04-26T06:51:56.986Z,6.53
2019-04-26T06:54:32.824Z,7.03
2019-04-26T06:57:11.511Z,6.23
2019-04-26T06:59:36.421Z,6.90
2019-04-26T07:02:00.908Z,8.13
2019-04-26T07:04:30.338Z,7.50
2019-04-26T07:07:02.572Z,6.43
2019-04-26T07:12:15.916Z,6.40
2019-04-26T07:35:09.766Z,7.07
2019-04-26T07:37:48.143Z,6.20
2019-04-26T07:42:41.827Z,7.22
2019-04-26T07:45:12.468Z,7.67
2019-04-26T07:47:45.787Z,7.53
2019-04-26T07:50:12.688Z,6.60
2019-04-26T07:52:44.869Z,7.53
2019-04-26T07:55:12.887Z,6.20
2019-04-26T07:57:46.395Z,6.30
2019-04-26T08:28:50.636Z,7.20
2019-04-26T08:33:59.223Z,7.90
2019-04-26T08:46:47.506Z,7.90
2019-04-26T08:54:22.523Z,7.37
2019-04-26T08:56:51.392Z,7.37
2019-04-26T08:59:19.736Z,7.77
2019-04-26T09:01:50.029Z,8.73
2019-04-26T09:04:18.718Z,7.77
2019-04-26T09:06:45.449Z,7.03
2019-04-26T09:09:18.296Z,6.70
2019-04-26T09:11:59.079Z,7.30
2019-04-26T09:14:18.497Z,8.00
2019-04-26T09:16:50.508Z,8.27
2019-04-26T09:19:17.641Z,8.17
2019-04-26T09:21:47.520Z,8.53
2019-04-26T09:24:21.148Z,7.93
2019-04-26T09:26:48.458Z,8.23
2019-04-26T09:29:16.750Z,7.73
2019-04-26T09:31:45.127Z,7.10
2019-04-26T09:34:14.355Z,8.60
2019-04-26T09:36:40.947Z,9.00
2019-04-26T09:39:09.786Z,9.47
2019-04-26T09:41:39.451Z,7.77
2019-04-26T09:44:08.640Z,7.33
2019-04-26T09:46:35.606Z,8.53
2019-04-26T09:49:03.088Z,8.53
2019-04-26T09:51:34.775Z,8.13
2019-04-26T09:54:03.002Z,8.50
2019-04-26T09:56:33.535Z,8.43
2019-04-26T09:59:01.474Z,8.13
2019-04-26T10:01:30.885Z,8.40
2019-04-26T10:04:00.636Z,8.13
2019-04-26T10:12:01.062Z,8.37
2019-04-26T10:14:28.468Z,8.87
2019-04-26T10:16:56.333Z,7.80
2019-04-26T10:19:31.641Z,7.83
2019-04-26T10:22:00.739Z,6.60
2019-04-26T10:24:30.028Z,7.55
2019-04-26T10:27:03.306Z,7.50
2019-04-26T10:32:09.316Z,7.45
2019-04-26T10:34:38.096Z,7.55
2019-04-26T10:37:08.187Z,7.30
2019-04-26T10:39:37.047Z,8.77
2019-04-26T10:42:06.229Z,8.38
2019-04-26T10:44:35.843Z,6.80
2019-04-26T10:47:04.393Z,8.17
2019-04-26T10:49:34.658Z,7.57
2019-04-26T10:52:06.289Z,8.00
2019-04-26T10:54:36.804Z,9.00
2019-04-26T10:57:05.157Z,8.30
2019-04-26T10:59:39.908Z,9.08
2019-04-26T11:02:05.180Z,9.00
2019-04-26T11:04:32.007Z,8.20
2019-04-26T11:07:01.978Z,9.35
2019-04-26T11:09:27.638Z,9.33
2019-04-26T11:11:54.560Z,8.33
2019-04-26T11:14:22.608Z,9.50
2019-04-26T11:16:50.084Z,9.07
2019-04-26T11:19:16.963Z,9.03
2019-04-26T11:21:43.881Z,9.17
2019-04-26T11:24:11.102Z,9.68
2019-04-26T11:26:39.312Z,8.50
2019-04-26T11:29:06.229Z,9.33
2019-04-26T11:31:33.417Z,9.03
2019-04-26T11:34:05.518Z,8.80
2019-04-26T11:36:29.230Z,9.90
2019-04-26T11:38:56.097Z,10.95
2019-04-26T11:41:22.976Z,8.43
2019-04-26T11:43:52.871Z,8.53
2019-04-26T11:46:21.821Z,9.05
2019-04-26T11:48:58.554Z,9.33
2019-04-26T11:51:16.098Z,9.30
2019-04-26T11:53:44.950Z,9.23
2019-04-26T11:56:14.017Z,8.30
2019-04-26T11:58:40.810Z,8.47
2019-04-26T12:01:07.622Z,9.60
2019-04-26T12:03:34.814Z,9.63
2019-04-26T12:06:01.729Z,9.27
2019-04-26T12:08:28.594Z,8.67
2019-04-26T12:10:55.328Z,9.20
2019-04-26T12:13:25.098Z,8.27
2019-04-26T12:15:52.117Z,8.90
2019-04-26T12:18:19.005Z,8.23
2019-04-26T12:20:45.705Z,8.55
2019-04-26T12:23:13.570Z,8.73
2019-04-26T12:25:43.625Z,7.70
2019-04-26T12:28:10.169Z,7.83
2019-04-26T12:30:37.319Z,6.97
2019-04-26T12:33:07.269Z,7.30
2019-04-26T12:35:34.173Z,9.10
2019-04-26T12:38:01.056Z,7.80
2019-04-26T12:40:27.902Z,7.03
2019-04-26T12:42:54.767Z,7.83
2019-04-26T12:45:21.632Z,7.50
2019-04-26T12:47:48.787Z,7.53
2019-04-26T12:50:16.354Z,7.90
2019-04-26T12:52:42.994Z,6.80
2019-04-26T12:55:21.948Z,8.37
2019-04-26T13:02:55.713Z,7.67
2019-04-26T13:05:22.793Z,9.07
2019-04-26T13:07:49.731Z,7.47
2019-04-26T13:10:16.631Z,7.43
2019-04-26T13:12:43.516Z,7.77
2019-04-26T13:15:13.234Z,7.03
2019-04-26T13:17:39.450Z,7.60
2019-04-26T13:20:06.312Z,7.40
2019-04-26T13:22:45.341Z,6.53
2019-04-26T13:25:02.399Z,6.35
2019-04-26T13:27:29.293Z,7.90
2019-04-26T13:30:02.445Z,7.33
2019-04-26T13:32:24.722Z,6.40
2019-04-26T13:34:51.288Z,9.17
2019-04-26T13:37:18.217Z,7.27
2019-04-26T13:39:46.314Z,7.05
2019-04-26T13:42:13.614Z,6.67
2019-04-26T13:44:41.790Z,6.53
2019-04-26T13:47:09.578Z,7.20
2019-04-26T13:49:36.427Z,6.17
2019-04-26T13:52:03.312Z,6.30
2019-04-26T13:54:30.571Z,7.15
2019-04-26T13:56:57.465Z,7.55
2019-04-26T13:59:24.339Z,7.07
2019-04-26T14:01:51.254Z,6.45
2019-04-26T14:04:18.147Z,7.03
2019-04-26T14:06:44.998Z,6.37
2019-04-26T14:09:12.390Z,6.70
2019-04-26T14:11:39.283Z,5.90
2019-04-26T14:14:05.893Z,6.67
2019-04-26T14:16:32.850Z,6.80
2019-04-26T14:18:59.451Z,6.83
2019-04-26T14:21:29.252Z,7.07
2019-04-26T14:23:55.160Z,6.65
2019-04-26T14:26:22.111Z,7.13
2019-04-26T14:28:49.035Z,6.35
2019-04-26T14:31:16.751Z,6.73
2019-04-26T14:33:44.296Z,6.90
2019-04-26T14:36:17.622Z,5.73
2019-04-26T14:38:41.284Z,5.83
2019-04-26T14:41:08.392Z,6.00
2019-04-26T14:43:41.019Z,6.43
2019-04-26T14:46:04.495Z,4.72
2019-04-26T14:48:36.139Z,6.13
2019-04-26T14:51:07.866Z,5.50
2019-04-26T14:53:32.094Z,5.90
2019-04-26T14:55:57.569Z,5.42
2019-04-26T14:58:29.989Z,5.20
2019-04-26T15:00:55.913Z,6.40
2019-04-26T15:03:22.586Z,5.77
2019-04-26T15:05:50.057Z,6.45
2019-04-26T15:08:16.963Z,5.93
2019-04-26T15:10:48.762Z,6.00
2019-04-26T15:13:19.948Z,6.33
2019-04-26T15:15:42.369Z,5.50
2019-04-26T15:18:10.204Z,5.60
2019-04-26T15:20:37.097Z,6.77
2019-04-26T15:23:04.011Z,5.63
2019-04-26T15:25:31.816Z,5.10
2019-04-26T15:27:59.572Z,5.07
2019-04-26T15:32:58.848Z,4.50
2019-04-26T15:38:11.310Z,5.05
2019-04-26T15:40:38.159Z,5.27
2019-04-26T15:43:14.395Z,5.50
2019-04-26T15:45:38.795Z,5.00
2019-04-26T15:48:02.330Z,4.60
2019-04-26T15:50:29.293Z,4.23
2019-04-26T15:52:56.522Z,4.70
2019-04-26T15:55:23.681Z,5.08
2019-04-26T15:57:50.609Z,4.80
2019-04-26T16:00:17.557Z,5.30
2019-04-26T16:02:44.457Z,4.67
2019-04-26T16:05:12.357Z,4.77
2019-04-26T16:07:39.703Z,4.65
2019-04-26T16:10:06.616Z,4.65
2019-04-26T16:12:33.496Z,3.90
2019-04-26T16:15:02.300Z,3.97
2019-04-26T16:17:28.750Z,4.60
2019-04-26T16:19:56.065Z,4.40
2019-04-26T16:22:25.793Z,3.73
2019-04-26T16:24:53.199Z,4.90
2019-04-26T16:27:19.928Z,4.93
2019-04-26T16:29:50.820Z,3.58
2019-04-26T16:32:16.871Z,4.22
2019-04-26T16:34:47.635Z,4.00
2019-04-26T16:37:15.038Z,3.47
2019-04-26T16:39:43.316Z,4.23
2019-04-26T16:42:09.972Z,4.00
2019-04-26T16:44:36.958Z,3.57
2019-04-26T16:47:05.905Z,3.30
2019-04-26T16:52:05.546Z,3.23
2019-04-26T16:54:29.846Z,2.73
2019-04-26T16:56:59.117Z,2.77
2019-04-26T16:59:26.824Z,2.50
2019-04-26T17:00:45.500Z,4.10
2019-04-26T17:01:53.950Z,3.17
2019-04-26T17:04:28.682Z,2.92
2019-04-26T17:06:50.209Z,2.57
2019-04-26T17:09:17.103Z,2.47
2019-04-26T17:11:49.661Z,2.53
2019-04-26T17:14:16.632Z,2.72
2019-04-26T17:16:44.462Z,2.50
2019-04-26T17:19:11.912Z,2.87
2019-04-26T17:21:39.969Z,2.40
2019-04-26T17:24:09.606Z,2.47
2019-04-26T17:26:36.486Z,3.00
2019-04-26T17:29:03.741Z,2.53
2019-04-26T17:31:30.569Z,3.23
2019-04-26T17:33:57.474Z,2.70
2019-04-26T17:36:24.398Z,2.40
2019-04-26T17:38:51.288Z,2.40
2019-04-26T17:41:18.486Z,2.90
2019-04-26T17:43:47.418Z,2.30
2019-04-26T17:46:14.559Z,2.50
2019-04-26T17:48:44.875Z,1.83
2019-04-26T17:51:18.495Z,2.10
2019-04-26T17:53:40.187Z,1.83
2019-04-26T17:56:07.359Z,1.95
2019-04-26T17:58:49.199Z,2.40
2019-04-26T18:01:03.805Z,1.90
2019-04-26T18:03:32.539Z,2.35
2019-04-26T18:06:00.874Z,2.17
2019-04-26T18:08:38.692Z,1.93
2019-04-26T18:10:56.322Z,2.07
2019-04-26T18:13:23.117Z,1.95
2019-04-26T18:15:49.994Z,1.90
2019-04-26T18:18:18.271Z,2.00
2019-04-26T18:20:45.149Z,1.83
2019-04-26T18:23:15.423Z,1.90
2019-04-26T18:25:41.288Z,1.80
2019-04-26T18:28:13.255Z,1.70
2019-04-26T18:30:40.391Z,2.25
2019-04-26T18:33:06.749Z,2.00
2019-04-26T18:35:33.807Z,2.20
2019-04-26T18:38:00.658Z,2.37
2019-04-26T18:40:27.504Z,1.95
2019-04-26T18:42:55.100Z,2.30
2019-04-26T18:45:28.762Z,1.83
2019-04-26T18:47:50.348Z,1.67
2019-04-26T18:50:18.642Z,2.60
2019-04-26T18:52:45.650Z,1.97
2019-04-26T18:55:14.869Z,1.50
2019-04-26T18:57:43.022Z,1.90
2019-04-26T19:00:10.016Z,2.13
2019-04-26T19:02:36.905Z,1.93
2019-04-26T19:05:04.492Z,1.87
2019-04-26T19:07:32.678Z,1.67
2019-04-26T19:10:04.681Z,1.60
2019-04-26T19:12:28.473Z,1.80
2019-04-26T19:15:03.292Z,1.93
2019-04-26T19:17:26.185Z,1.70
2019-04-26T19:19:53.154Z,1.82
2019-04-26T19:22:22.542Z,1.90
2019-04-26T19:24:54.197Z,1.90
2019-04-26T19:27:22.386Z,2.42
2019-04-26T19:29:48.041Z,2.47
2019-04-26T19:32:15.924Z,2.10
2019-04-26T19:34:42.563Z,1.72
2019-04-26T19:37:10.809Z,2.02
2019-04-26T19:39:37.796Z,1.93
2019-04-26T19:42:06.283Z,2.60
2019-04-26T19:44:34.316Z,3.07
2019-04-26T19:47:06.537Z,1.92
2019-04-26T19:49:33.355Z,2.03
2019-04-26T19:52:03.718Z,1.75
2019-04-26T19:54:35.454Z,2.70
2019-04-26T19:57:01.078Z,3.07
2019-04-26T19:59:33.248Z,2.97
2019-04-26T20:01:57.835Z,3.00
2019-04-26T20:04:30.642Z,2.80
2019-04-26T20:06:55.419Z,2.70
2019-04-26T20:11:57.971Z,2.95
2019-04-26T20:14:25.807Z,2.75
2019-04-26T20:16:49.566Z,2.57
2019-04-26T20:19:17.979Z,2.50
2019-04-26T20:21:45.475Z,2.60
2019-04-26T20:24:13.552Z,2.10
2019-04-26T20:26:41.956Z,2.75
2019-04-26T20:34:10.968Z,2.50
2019-04-26T20:44:06.958Z,2.90
2019-04-26T20:46:36.011Z,2.75
2019-04-26T20:49:09.270Z,3.60
2019-04-26T20:51:32.347Z,3.50
2019-04-26T20:53:59.666Z,3.40
2019-04-26T20:56:27.543Z,3.17
2019-04-26T20:58:57.455Z,2.70
2019-04-26T21:01:23.876Z,2.70
2019-04-26T21:03:55.318Z,2.80
2019-04-26T21:16:15.849Z,3.03
2019-04-26T21:18:44.797Z,3.40
2019-04-26T21:21:12.137Z,3.55
2019-04-26T21:23:43.850Z,3.43
2019-04-26T21:26:16.474Z,2.93
2019-04-26T21:28:43.862Z,3.12
2019-04-26T21:31:12.522Z,2.70
2019-04-26T21:33:42.929Z,3.13
2019-04-26T21:36:11.157Z,2.85
2019-04-26T21:38:38.731Z,2.73
2019-04-26T21:41:11.449Z,2.97
2019-04-26T21:43:37.955Z,2.90
2019-04-26T21:46:08.328Z,2.70
2019-04-26T21:48:37.344Z,2.63
2019-04-26T21:51:14.400Z,2.93
2019-04-26T21:53:42.156Z,2.77
2019-04-26T21:56:07.449Z,2.60
2019-04-26T21:58:38.591Z,2.80
2019-04-26T22:01:05.485Z,3.00
2019-04-26T22:03:34.900Z,2.60
2019-04-26T22:06:04.161Z,2.27
2019-04-26T22:08:34.734Z,2.60
2019-04-26T22:11:03.565Z,2.90
2019-04-26T22:13:33.342Z,3.07
2019-04-26T22:16:00.694Z,2.67
2019-04-26T22:18:40.030Z,2.47
2019-04-26T22:21:07.827Z,2.63
2019-04-26T22:23:36.341Z,2.03
2019-04-26T22:26:08.617Z,1.80
2019-04-26T22:28:36.333Z,1.90
2019-04-26T22:31:08.546Z,2.37
2019-04-26T22:33:34.350Z,2.00
2019-04-26T22:36:04.766Z,2.67
2019-04-26T22:38:33.986Z,1.77
2019-04-26T22:41:02.936Z,1.80
2019-04-26T22:43:29.784Z,2.05
2019-04-26T22:46:02.955Z,2.23
2019-04-26T22:48:33.915Z,2.07
2019-04-26T22:50:59.659Z,2.10
2019-04-26T22:53:29.332Z,2.10
2019-04-26T22:56:01.399Z,1.77
2019-04-26T22:58:30.217Z,2.00
2019-04-26T23:01:03.471Z,1.87
2019-04-26T23:03:28.265Z,2.00
2019-04-26T23:05:55.117Z,1.70
2019-04-26T23:08:25.841Z,1.60
2019-04-26T23:10:53.136Z,1.60
2019-04-26T23:13:23.850Z,1.15
2019-04-26T23:15:52.677Z,1.40
2019-04-26T23:20:53.217Z,1.50
2019-04-26T23:26:12.660Z,1.10
2019-04-26T23:28:40.302Z,1.10
2019-04-26T23:31:08.294Z,0.90
2019-04-26T23:33:42.912Z,0.90
2019-04-26T23:36:08.982Z,1.40
2019-04-26T23:38:37.635Z,1.03
2019-04-26T23:41:07.270Z,1.10
2019-04-26T23:43:37.882Z,1.20
2019-04-26T23:46:05.805Z,1.00
2019-04-26T23:48:34.506Z,1.00
2019-04-26T23:51:05.069Z,0.80
2019-04-26T23:53:33.627Z,0.80
2019-04-26T23:56:03.601Z,0.90
2019-04-26T23:58:30.658Z,0.80
